• Join FlightAware (Why Join?)
  • Login
  • US Flag 
03:19AM EDT


 

Airport Tracker/Info


-or-


 

Live Flight TrackerFlight Track Log ✈ AAL1428 ✈ 19-Jul-2013 ✈ KDFW - KTPA

Flight Track Log - Related Links

Times and Time Zones

All times are in EDT time to prevent confusion due to time zone crossing. See the AAL1428 flight status page for this flight to view local times or setup timezone preferences in your user account.

Time Position Orientation Groundspeed Altitude Reporting Facility
EDT Latitude Longitude Course Direction KTS MPH feet Rate Location/Type
04:31PM 32.8667 -97.0333 65° Northeast 186 214 1,500  Level Dallas / Fort Worth TRACON
04:32PM 32.8333 -97.0167 157° South 231 266 2,500 1,920 Climbing Dallas / Fort Worth TRACON
04:33PM 32.7667 -96.9833 157° South 275 316 5,000 2,400 Climbing Dallas / Fort Worth TRACON
04:34PM 32.6833 -96.8160 90° East  Level FlightAware Approximate
04:34PM 32.6833 -96.9667 170° South 279 321 7,700  Level Dallas / Fort Worth TRACON
04:35PM 32.7220 -96.6843 68° East  Level FlightAware Approximate
04:36PM 32.7655 -96.5536 68° East  Level FlightAware Approximate
04:36PM 32.6397 -96.7719 105° East 318 366 10,000  Level Fort Worth Center
04:37PM 32.8145 -96.4257 65° Northeast  Level FlightAware Approximate
04:37PM 32.6308 -96.6783 96° East 318 366 10,100  Level Fort Worth Center
04:38PM 32.6217 -96.5575 95° East 323 372 10,600 1,560 Climbing Fort Worth Center
04:39PM 32.6292 -96.4514 85° East 328 377 13,200 2,280 Climbing Fort Worth Center
04:40PM 32.6514 -96.3425 76° East 328 377 15,200 2,100 Climbing Fort Worth Center
04:41PM 32.6797 -96.2311 73° East 341 392 17,400 1,560 Climbing Fort Worth Center
04:42PM 32.7078 -96.1122 74° East 355 409 18,300 1,200 Climbing Fort Worth Center
04:43PM 32.7397 -95.9808 74° East 394 453 19,900 1,620 Climbing Fort Worth Center
04:44PM 32.7714 -95.8469 74° East 408 470 21,600 1,500 Climbing Fort Worth Center
04:45PM 32.8011 -95.7156 75° East 414 476 23,000 660 Climbing Fort Worth Center
04:46PM 32.8306 -95.5789 76° East 414 476 23,000  Level Fort Worth Center
04:47PM 32.8597 -95.4472 75° East 414 476 23,000  Level Fort Worth Center
04:48PM 32.8911 -95.3156 74° East 414 476 23,000  Level Fort Worth Center
04:49PM 32.9036 -95.1914 83° East 414 476 23,000  Level Fort Worth Center
04:50PM 32.9242 -95.0550 80° East 414 476 23,000  Level Fort Worth Center
04:51PM 32.9464 -94.9206 79° East 414 476 23,000  Level Fort Worth Center
04:52PM 32.9667 -94.7839 80° East 414 476 23,000 60 Level Fort Worth Center
04:53PM 32.9867 -94.6469 80° East 414 476 23,200 780 Climbing Fort Worth Center
04:54PM 33.0086 -94.5125 79° East 414 476 24,600 1,320 Climbing Fort Worth Center
04:55PM 33.0283 -94.3733 80° East 414 476 25,900 1,260 Climbing Fort Worth Center
04:56PM 33.0500 -94.2314 80° East 419 482 27,200 1,380 Climbing Fort Worth Center
04:57PM 33.0561 -94.0725 87° East 429 494 28,700 1,500 Climbing Fort Worth Center
04:58PM 33.0400 -93.9317 98° East 424 488 30,200 1,200 Climbing Fort Worth Center
04:59PM 33.0233 -93.7886 98° East 429 494 31,200 900 Climbing Fort Worth Center
05:00PM 33.0108 -93.6456 96° East 429 494 32,100 900 Climbing Fort Worth Center
05:01PM 32.9961 -93.5075 97° East 424 488 33,000 420 Climbing Fort Worth Center
05:02PM 32.9811 -93.3644 97° East 424 488 33,000  Level Fort Worth Center
05:03PM 32.9661 -93.2242 97° East 424 488 33,000  Level Fort Worth Center
05:04PM 32.9511 -93.0861 97° East 424 488 33,000  Level Fort Worth Center
05:05PM 32.9356 -92.9458 97° East 424 488 33,000  Level Fort Worth Center
05:06PM 32.9181 -92.8081 99° East 424 488 33,000  Level Fort Worth Center
05:07PM 32.9003 -92.6656 98° East 424 488 33,000  Level Fort Worth Center
05:08PM 32.8867 -92.5253 97° East 424 488 33,000  Level Fort Worth Center
05:10PM 32.8519 -92.2442 98° East 429 494 33,000  Level Memphis Center
05:11PM 32.8331 -92.1078 99° East 424 488 33,000  Level Memphis Center
05:12PM 32.8139 -91.9814 100° East 424 488 33,000  Level Memphis Center
05:13PM 32.7967 -91.8425 98° East 424 488 33,000  Level Memphis Center
05:14PM 32.7797 -91.6892 97° East 424 488 33,000  Level Memphis Center
05:15PM 32.7603 -91.5531 100° East 424 488 33,000  Level Memphis Center
05:16PM 32.7531 -91.4144 94° East 424 488 33,000  Level Memphis Center
05:17PM 32.7564 -91.2714 88° East 424 488 33,000  Level Memphis Center
05:18PM 32.7656 -91.1306 86° East 424 488 33,000  Level Memphis Center
05:19PM 32.7725 -90.9947 86° East 418 481 33,000  Level Memphis Center
05:20PM 32.7817 -90.8514 86° East 418 481 33,000  Level Memphis Center
05:21PM 32.7906 -90.7156 86° East 423 487 33,000  Level Memphis Center
05:22PM 32.8075 -90.5772 82° East 423 487 33,000  Level Memphis Center
05:23PM 32.8222 -90.4364 83° East 428 493 33,000  Level Memphis Center
05:24PM 32.8389 -90.2956 82° East 428 493 33,000  Level Memphis Center
05:25PM 32.8556 -90.1519 82° East 428 493 33,000  Level Memphis Center
05:26PM 32.8678 -90.0111 84° East 428 493 33,000  Level Memphis Center
05:27PM 32.8631 -89.8750 92° East 428 493 33,000  Level Memphis Center
05:28PM 32.8353 -89.7367 103° East 434 499 33,000  Level Memphis Center
05:29PM 32.7867 -89.6133 115° Southeast 424 488 33,000  Level Memphis Center
05:30PM 32.7378 -89.4903 115° Southeast 414 476 33,000  Level Memphis Center
05:31PM 32.6889 -89.3650 115° Southeast 414 476 33,000  Level Memphis Center
05:32PM 32.6397 -89.2372 115° Southeast 414 476 33,000  Level Memphis Center
05:33PM 32.5906 -89.1122 115° Southeast 419 482 33,000  Level Memphis Center
05:34PM 32.5411 -88.9872 115° Southeast 419 482 33,000  Level Memphis Center
05:35PM 32.4936 -88.8450 112° Southeast 419 482 33,000  Level Memphis Center
05:38PM 32.4558 -88.4719 97° East 450 518 33,000  Level Atlanta Center
05:39PM 32.4403 -88.3261 97° East 445 512 33,000  Level Atlanta Center
05:40PM 32.4264 -88.1828 97° East 440 506 33,000  Level Atlanta Center
05:41PM 32.4100 -88.0417 98° East 440 506 33,000  Level Atlanta Center
05:42PM 32.3939 -87.9008 98° East 440 506 33,000  Level Atlanta Center
05:43PM 32.3794 -87.7575 97° East 440 506 33,000  Level Atlanta Center
05:44PM 32.3647 -87.6142 97° East 435 501 33,000  Level Atlanta Center
05:45PM 32.3522 -87.4711 96° East 435 501 33,000  Level Atlanta Center
05:46PM 32.3356 -87.3108 97° East 435 501 33,000  Level Atlanta Center
05:47PM 32.3228 -87.1678 96° East 441 507 33,000  Level Atlanta Center
05:48PM 32.3158 -87.0250 93° East 441 507 33,000  Level Atlanta Center
05:49PM 32.3047 -86.8794 95° East 447 514 33,000  Level Atlanta Center
05:50PM 32.2931 -86.7392 96° East 442 509 33,000  Level Atlanta Center
05:52PM 32.2106 -86.4961 112° Southeast 413 475 33,000  Level Atlanta Center
05:53PM 32.1403 -86.3592 121° Southeast 423 487 33,000  Level Atlanta Center
05:54PM 32.0444 -86.2244 130° Southeast 434 499 33,000  Level Atlanta Center
05:57PM 31.8342 -86.0006 138° Southeast 437 503 33,000  Level Jacksonville Center
05:58PM 31.7422 -85.9094 140° Southeast 432 497 33,000  Level Jacksonville Center
05:59PM 31.6525 -85.8164 139° Southeast 432 497 33,000 -180 Level Jacksonville Center
06:00PM 31.5650 -85.7208 137° Southeast 432 497 32,700 -780 Descending Jacksonville Center
06:01PM 31.4794 -85.6306 138° Southeast 426 490 31,500 -1,260 Descending Jacksonville Center
06:02PM 31.3978 -85.5431 138° Southeast 415 478 30,200 -1,380 Descending Jacksonville Center
06:03PM 31.3078 -85.4408 136° Southeast 409 471 28,800 -1,260 Descending Jacksonville Center
06:04PM 31.2281 -85.3586 139° Southeast 404 465 27,700 -900 Descending Jacksonville Center
06:05PM 31.1461 -85.2739 138° Southeast 398 458 27,100 -600 Descending Jacksonville Center
06:06PM 31.0581 -85.1794 137° Southeast 406 467 26,500 -840 Descending Jacksonville Center
06:07PM 30.9700 -85.0878 138° Southeast 416 479 25,500 -900 Descending Jacksonville Center
06:08PM 30.8983 -85.0108 137° Southeast 430 495 24,700 -600 Descending Jacksonville Center
06:10PM 30.7194 -84.8233 138° Southeast 420 483 23,700 -600 Descending Jacksonville Center
06:11PM 30.6331 -84.7347 139° Southeast 420 483 23,000 -900 Descending Jacksonville Center
06:12PM 30.5508 -84.6486 138° Southeast 413 475 22,000 -840 Descending Jacksonville Center
06:13PM 30.4686 -84.5628 138° Southeast 408 470 21,400 -540 Descending Jacksonville Center
06:14PM 30.3861 -84.4769 138° Southeast 408 470 21,000 -240 Descending Jacksonville Center
06:15PM 30.3036 -84.3914 138° Southeast 403 464 21,000 -120 Level Jacksonville Center
06:16PM 30.2189 -84.3083 140° Southeast 403 464 20,800 -420 Descending Jacksonville Center
06:17PM 30.1364 -84.2281 140° Southeast 403 464 20,200 -600 Descending Jacksonville Center
06:18PM 30.0369 -84.1522 147° Southeast 396 456 19,600 -540 Descending Jacksonville Center
06:19PM 29.9519 -84.0864 146° Southeast 384 442 19,200 -300 Descending Jacksonville Center
06:20PM 29.8753 -84.0256 145° Southeast 359 413 19,000 -120 Descending Jacksonville Center
06:21PM 29.8047 -83.9697 146° Southeast 344 396 19,000  Level Jacksonville Center
06:22PM 29.7281 -83.9092 146° Southeast 344 396 19,000 -60 Level Jacksonville Center
06:23PM 29.6533 -83.8508 146° Southeast 338 389 18,900  Descending Jacksonville Center
06:24PM 29.5764 -83.7906 146° Southeast 338 389 19,000  Climbing Jacksonville Center
06:25PM 29.4997 -83.7300 145° Southeast 338 389 19,000  Level Jacksonville Center
06:26PM 29.4208 -83.6697 146° Southeast 338 389 19,000  Level Jacksonville Center
06:27PM 29.3417 -83.6072 145° Southeast 338 389 19,000  Level Jacksonville Center
06:28PM 29.2586 -83.5425 146° Southeast 349 402 19,000  Level Jacksonville Center
06:29PM 29.1692 -83.4775 148° Southeast 366 421 19,000  Level Jacksonville Center
06:30PM 29.0756 -83.4178 151° Southeast 381 438 19,000 -300 Level Jacksonville Center
06:31PM 28.9797 -83.3578 151° Southeast 386 444 18,400 -900 Descending Jacksonville Center
06:32PM 28.8903 -83.3006 151° Southeast 380 437 17,300 -1,200 Descending Jacksonville Center
06:33PM 28.7983 -83.2433 151° Southeast 380 437 16,100 -1,260 Descending Jacksonville Center
06:34PM 28.6333 -83.1333 150° Southeast 355 409 13,900 -1,260 Descending Tampa TRACON
06:35PM 28.5500 -83.0833 152° Southeast 351 404 12,800 -1,080 Descending Tampa TRACON
06:36PM 28.4667 -83.0333 152° Southeast 340 391 11,900 -900 Descending Tampa TRACON
06:37PM 28.4000 -82.9833 147° Southeast 333 383 11,100 -600 Descending Tampa TRACON
06:38PM 28.3167 -82.9333 152° Southeast 330 380 10,800 -660 Descending Tampa TRACON
06:39PM 28.2333 -82.9000 161° South 280 322 9,900 -1,320 Descending Tampa TRACON
06:40PM 28.1833 -82.8333 130° Southeast 283 326 8,300 -1,260 Descending Tampa TRACON
06:42PM 28.1167 -82.7500 132° Southeast 280 322 6,900 -1,200 Descending Tampa TRACON
06:42PM 28.0833 -82.7000 127° Southeast 279 321 6,000 -1,140 Descending Tampa TRACON
06:43PM 28.0333 -82.6500 139° Southeast 253 291 5,000 -480 Descending Tampa TRACON
06:45PM 27.9667 -82.6167 156° South 201 231 5,000  Level Tampa TRACON